Aérodrome :
LOGIN :

S'inscrire | Disclaimer

   EN    FR    IT 

 










Légende :    VFR   VFR Marginal   IFR   IFR Intensif   IFR Très Intensif
Visi : 
Plafond : 
>= 8 km
>= 3000ft
5 à 8 km
1000 à 3000 ft
1500m à 5 km
500 à 1000 ft
800 à 1500m
200 à 500 ft
< 800m
< 200 ft
Symboles :   Orages  Brouillard  Fortes neiges  Fortes précipitations  Vent > 20 kt
SIGMETs :   Divers  Orages  Givrage  Turbulence  Onde Orograph.  Cendres Volcan.







- Altitude de l'aérodrome : 2425 ft


ETHA - Altenstadt Army

DERNIER METAR :
  • 191920Z AUTO 26007KT //// // ////// 07/05 Q1020 ///

METARs EXPIRÉS :
  • 191820Z 25006KT 9999 FEW005 BKN035 BKN080 07/05 Q1019 BLU
  • 191800Z 25007KT 9999 FEW005 SCT035 BKN080 07/05 Q1019 BLU FCST CANCEL
  • 191720Z 26006KT 9999 FEW005 BKN080 07/05 Q1018 BLU BLU TEMPO WHT

TAF AMD TAF ETHA
Valide du 19 à 14h jusqu'au 19 à 23h UTC


191658Z 1914/1923 26008KT 9999 NSW SCT020 BKN040 OVC080
TEMPO 1914/1923 28010KT 5000 SHRA SCT010 BKN020 OVC040 CANCEL 1800
Pas de NOTAMs connus pour ce terrain.



MET'MAP, la Météo Aéronautique d'un coup d'oeil ! - Copyright ORBIFLY Décembre 2007 - Disclaimer

ORBIFLY MET'MAP TEAM :

Programmation & Développement : Alexandra Zaïnal
Conception & Développement : Baudouin d'Aumeries
Co-Programmation & Développement : Marc-Olivier Méhu
Soutien technique & logistique : Manuel Goepfert

Contact : metmap@orbifly.com




SOURCES & CREDITS :

   NOAA